Time;durP1;ratioP1;P1;durP2;ratioP2;P2;SDS_P1;SDS_P2;PMS_P1;PMS_P2;Temp;Humidity;BMP_temperature;BMP_pressure;BME280_temperature;BME280_humidity;BME280_pressure;Samples;Min_cycle;Max_cycle;Signal;HPM_P1;HPM_P2
2023/07/15 00:01:28;;;;;;;8.50;5.10;;;;;;;20.07;60.78;97923.90;106988;1282;23368;-80
2023/07/15 00:03:55;;;;;;;6.60;4.20;;;;;;;20.06;60.73;97925.19;107061;1282;22544;-78
2023/07/15 00:06:24;;;;;;;7.90;4.70;;;;;;;20.06;60.95;97925.52;106754;1281;22544;-78
2023/07/15 00:08:52;;;;;;;9.10;4.60;;;;;;;20.01;61.00;97921.98;107083;1282;25531;-78
2023/07/15 00:11:24;;;;;;;7.00;5.00;;;;;;;19.97;61.04;97922.91;106871;1282;23167;-78
2023/07/15 00:13:50;;;;;;;6.70;4.50;;;;;;;19.93;61.11;97915.98;106945;1282;22528;-78
2023/07/15 00:16:17;;;;;;;7.00;4.70;;;;;;;19.91;61.28;97911.86;106986;1282;23917;-78
2023/07/15 00:18:45;;;;;;;9.40;4.80;;;;;;;19.89;61.37;97914.40;106923;1282;22599;-78
2023/07/15 00:21:18;;;;;;;6.50;4.60;;;;;;;19.85;61.51;97923.84;106953;1282;22549;-79
2023/07/15 00:23:46;;;;;;;5.90;4.40;;;;;;;19.82;61.67;97923.46;107036;1282;23358;-81
2023/07/15 00:26:12;;;;;;;9.60;4.80;;;;;;;19.79;62.07;97919.58;106876;1282;22551;-81
2023/07/15 00:28:39;;;;;;;5.80;4.40;;;;;;;19.71;62.10;97920.89;106971;1282;25400;-81
2023/07/15 00:31:13;;;;;;;6.90;4.40;;;;;;;19.64;62.34;97919.02;107015;1280;24449;-81
2023/07/15 00:33:41;;;;;;;8.90;4.30;;;;;;;19.53;62.19;97911.35;106921;1282;25241;-80
2023/07/15 00:36:09;;;;;;;7.70;5.40;;;;;;;19.44;62.61;97910.84;106964;1282;22560;-79
2023/07/15 00:38:37;;;;;;;5.50;4.40;;;;;;;19.39;62.56;97915.33;106952;1282;22590;-81
2023/07/15 00:41:10;;;;;;;8.40;4.80;;;;;;;19.32;63.05;97915.02;107061;1282;22617;-80
2023/07/15 00:43:55;;;;;;;11.10;5.00;;;;;;;19.31;63.08;97922.17;106881;1282;22568;-79
2023/07/15 00:46:22;;;;;;;6.00;4.30;;;;;;;19.29;63.14;97925.27;107061;1276;22544;-79
2023/07/15 00:49:04;;;;;;;6.20;4.80;;;;;;;19.27;63.10;97919.84;106897;1282;22933;-80
2023/07/15 00:51:35;;;;;;;6.80;4.50;;;;;;;19.23;63.10;97916.92;106850;1282;22555;-78
2023/07/15 00:54:03;;;;;;;8.10;4.20;;;;;;;19.23;63.68;97912.79;106304;1282;23297;-80
2023/07/15 00:56:33;;;;;;;7.70;4.30;;;;;;;19.31;63.73;97912.58;106886;1282;22557;-82
2023/07/15 00:59:03;;;;;;;8.00;4.50;;;;;;;19.36;63.53;97909.33;106882;1282;22555;-83
2023/07/15 01:01:31;;;;;;;6.50;4.60;;;;;;;19.35;63.40;97910.55;106910;1280;22582;-79
2023/07/15 01:03:57;;;;;;;7.50;4.80;;;;;;;19.32;63.68;97910.71;106783;1283;22541;-80
2023/07/15 01:06:24;;;;;;;5.80;4.20;;;;;;;19.31;63.89;97906.10;106910;1279;22555;-79
2023/07/15 01:08:50;;;;;;;6.60;4.60;;;;;;;19.30;64.03;97903.11;106812;1283;22658;-79
2023/07/15 01:11:17;;;;;;;6.30;4.40;;;;;;;19.32;63.79;97902.75;106931;1282;25311;-79
2023/07/15 01:13:44;;;;;;;9.90;4.90;;;;;;;19.32;64.00;97904.00;106833;1282;25349;-79
2023/07/15 01:16:13;;;;;;;9.10;5.00;;;;;;;19.31;64.13;97897.44;107028;1281;22665;-78
2023/07/15 01:18:41;;;;;;;7.40;5.20;;;;;;;19.26;63.93;97897.48;106924;1282;25293;-79
2023/07/15 01:21:07;;;;;;;6.20;4.70;;;;;;;19.24;64.29;97901.52;106943;1283;24207;-80
2023/07/15 01:23:34;;;;;;;7.40;4.50;;;;;;;19.22;64.26;97896.85;106953;1282;22753;-80
2023/07/15 01:26:01;;;;;;;8.00;5.00;;;;;;;19.19;64.38;97894.27;106898;1281;24267;-80
2023/07/15 01:28:27;;;;;;;8.30;5.00;;;;;;;19.15;64.78;97895.81;106882;1282;22628;-80
2023/07/15 01:30:58;;;;;;;6.00;4.70;;;;;;;19.13;64.48;97893.30;106965;1282;23146;-78
2023/07/15 01:33:25;;;;;;;8.60;4.80;;;;;;;19.07;64.45;97893.07;106969;1282;24259;-80
2023/07/15 01:35:52;;;;;;;5.90;4.60;;;;;;;19.02;64.76;97890.54;106889;1282;22559;-80
2023/07/15 01:38:18;;;;;;;7.10;4.60;;;;;;;19.01;64.88;97888.41;106891;1271;24230;-80
2023/07/15 01:40:45;;;;;;;7.10;4.60;;;;;;;19.00;64.90;97888.46;106805;1282;22617;-80
2023/07/15 01:43:11;;;;;;;9.40;4.80;;;;;;;19.00;65.04;97881.67;106890;1271;22549;-79
2023/07/15 01:45:39;;;;;;;5.20;4.10;;;;;;;18.96;65.04;97886.80;106927;1282;23941;-79
2023/07/15 01:48:07;;;;;;;6.00;4.30;;;;;;;18.93;65.53;97886.96;106925;1273;22549;-82
2023/07/15 01:50:35;;;;;;;8.10;4.60;;;;;;;19.00;66.50;97887.69;106816;1283;22540;-80
2023/07/15 01:53:02;;;;;;;6.90;4.80;;;;;;;19.05;66.11;97887.71;106891;1282;25345;-78
2023/07/15 01:55:29;;;;;;;7.20;4.80;;;;;;;19.09;66.37;97890.61;106895;1275;22570;-79
2023/07/15 01:57:56;;;;;;;6.20;4.80;;;;;;;19.10;65.83;97891.95;106831;1282;25606;-79
2023/07/15 02:00:23;;;;;;;6.00;4.40;;;;;;;19.06;65.65;97890.39;106999;1282;25353;-80
2023/07/15 02:02:49;;;;;;;6.80;4.70;;;;;;;19.03;66.25;97888.76;106929;1281;22649;-80
2023/07/15 02:05:16;;;;;;;7.60;5.40;;;;;;;19.02;65.80;97891.70;107130;1282;24392;-82
2023/07/15 02:07:44;;;;;;;6.80;5.20;;;;;;;18.92;65.39;97894.80;107425;1282;22564;-82
2023/07/15 02:10:11;;;;;;;7.50;4.70;;;;;;;18.77;65.48;97892.58;107340;1282;25267;-81
2023/07/15 02:12:37;;;;;;;7.60;4.70;;;;;;;18.71;65.98;97896.21;107186;1282;22540;-81
2023/07/15 02:15:05;;;;;;;6.50;4.40;;;;;;;18.68;66.06;97896.39;107321;1282;22551;-80
2023/07/15 02:17:31;;;;;;;5.90;4.10;;;;;;;18.69;66.24;97898.99;106593;1282;22572;-81
2023/07/15 02:19:59;;;;;;;7.30;4.50;;;;;;;18.72;66.62;97897.99;107377;1282;23336;-80
2023/07/15 02:22:26;;;;;;;8.00;4.50;;;;;;;18.81;67.06;97899.01;106620;1282;23027;-80
2023/07/15 02:24:53;;;;;;;5.40;4.20;;;;;;;18.90;67.23;97901.16;106604;1282;22544;-82
2023/07/15 02:27:19;;;;;;;6.40;4.50;;;;;;;18.96;67.71;97903.89;107154;1282;26638;-81
2023/07/15 02:29:46;;;;;;;7.00;4.80;;;;;;;19.05;68.21;97905.66;107221;1282;22565;-81
2023/07/15 02:32:14;;;;;;;6.70;4.60;;;;;;;19.09;67.22;97904.35;107158;1268;22540;-81
2023/07/15 02:34:41;;;;;;;9.60;5.00;;;;;;;19.05;67.14;97903.96;107133;1282;22605;-82
2023/07/15 02:37:08;;;;;;;8.70;5.30;;;;;;;19.03;66.96;97907.25;106930;1282;22574;-80
2023/07/15 02:39:35;;;;;;;7.30;4.80;;;;;;;18.99;67.17;97909.64;106531;1282;25252;-81
2023/07/15 02:42:02;;;;;;;6.70;5.10;;;;;;;18.93;67.12;97912.10;107198;1282;23254;-80
2023/07/15 02:44:29;;;;;;;8.00;5.10;;;;;;;18.86;67.19;97911.44;107232;1282;22709;-80
2023/07/15 02:46:55;;;;;;;5.50;4.20;;;;;;;18.80;67.58;97909.41;107314;1282;25426;-81
2023/07/15 02:49:22;;;;;;;6.40;4.70;;;;;;;18.78;67.83;97908.98;107315;1282;22492;-80
2023/07/15 02:51:49;;;;;;;9.40;5.00;;;;;;;18.74;67.75;97904.84;107316;1279;22655;-81
2023/07/15 02:54:16;;;;;;;5.80;4.90;;;;;;;18.74;67.56;97908.24;107267;1282;22645;-80
2023/07/15 02:56:42;;;;;;;7.40;5.10;;;;;;;18.66;67.22;97908.05;107402;1282;25334;-81
2023/07/15 02:59:09;;;;;;;6.70;4.80;;;;;;;18.53;67.31;97915.09;107412;1282;23443;-80
2023/07/15 03:01:35;;;;;;;8.80;4.90;;;;;;;18.42;67.94;97914.59;107361;1282;25426;-80
2023/07/15 03:04:04;;;;;;;6.20;4.90;;;;;;;18.43;68.18;97912.04;106611;1282;22552;-80
2023/07/15 03:06:32;;;;;;;6.70;5.00;;;;;;;18.43;68.08;97914.92;107268;1282;22598;-80
2023/07/15 03:08:59;;;;;;;7.10;5.10;;;;;;;18.45;68.38;97916.15;107313;1282;25495;-81
2023/07/15 03:11:26;;;;;;;7.80;5.10;;;;;;;18.48;68.30;97915.61;107259;1282;23139;-81
2023/07/15 03:13:55;;;;;;;8.00;5.00;;;;;;;18.51;68.11;97914.74;107210;1282;22558;-80
2023/07/15 03:16:22;;;;;;;6.40;5.10;;;;;;;18.48;68.07;97914.60;107210;1282;22569;-80
2023/07/15 03:18:49;;;;;;;7.60;5.40;;;;;;;18.51;68.38;97912.03;107315;1282;22566;-80
2023/07/15 03:21:15;;;;;;;7.00;5.10;;;;;;;18.53;68.57;97913.77;107367;1282;23028;-80
2023/07/15 03:23:42;;;;;;;5.90;4.50;;;;;;;18.59;68.70;97914.41;107487;1282;22616;-81
2023/07/15 03:26:09;;;;;;;7.30;5.00;;;;;;;18.64;68.70;97909.84;107321;1282;22580;-80
2023/07/15 03:28:35;;;;;;;9.90;5.80;;;;;;;18.63;68.58;97910.36;107274;1282;22617;-81
2023/07/15 03:31:04;;;;;;;7.00;5.30;;;;;;;18.67;69.07;97909.14;107240;1282;25346;-81
2023/07/15 03:33:31;;;;;;;6.80;5.10;;;;;;;18.70;68.90;97912.83;107305;1282;22845;-82
2023/07/15 03:36:01;;;;;;;8.20;5.90;;;;;;;18.69;68.40;97912.70;107373;1282;22540;-82
2023/07/15 03:38:27;;;;;;;6.80;5.20;;;;;;;18.51;68.62;97914.50;107231;1282;24233;-81
2023/07/15 03:40:56;;;;;;;9.90;5.40;;;;;;;18.54;69.59;97914.20;107314;1282;22564;-81
2023/07/15 03:43:22;;;;;;;6.70;5.00;;;;;;;18.63;69.19;97914.74;107309;1282;22541;-81
2023/07/15 03:45:49;;;;;;;6.80;4.60;;;;;;;18.68;69.01;97917.29;107341;1282;23398;-81
2023/07/15 03:48:15;;;;;;;5.90;4.70;;;;;;;18.74;69.07;97914.50;107310;1282;24419;-81
2023/07/15 03:50:45;;;;;;;8.40;5.10;;;;;;;18.83;69.39;97915.11;107193;1282;25297;-81
2023/07/15 03:53:12;;;;;;;11.70;5.60;;;;;;;18.88;69.07;97913.35;107103;1282;25258;-80
2023/07/15 03:55:39;;;;;;;8.90;5.70;;;;;;;18.81;68.66;97919.45;107221;1276;22574;-81
2023/07/15 03:58:05;;;;;;;7.30;5.00;;;;;;;18.77;69.34;97916.29;107235;1282;24259;-82
2023/07/15 04:00:32;;;;;;;7.80;5.70;;;;;;;18.76;69.34;97921.02;107358;1282;22522;-81
2023/07/15 04:03:00;;;;;;;5.90;4.90;;;;;;;18.77;69.43;97922.15;107273;1282;22596;-79
2023/07/15 04:05:27;;;;;;;7.50;5.10;;;;;;;18.84;69.84;97925.58;108930;1282;22540;-79
2023/07/15 04:07:53;;;;;;;6.30;4.40;;;;;;;18.96;70.05;97923.85;107298;1282;22658;-80
2023/07/15 04:10:20;;;;;;;6.10;4.40;;;;;;;19.11;69.91;97923.66;107344;1282;22983;-80
2023/07/15 04:12:47;;;;;;;8.30;5.70;;;;;;;19.26;69.91;97918.55;107393;1282;22553;-80
2023/07/15 04:15:13;;;;;;;7.00;5.60;;;;;;;19.37;69.57;97916.86;107328;1282;24422;-80
2023/07/15 04:17:40;;;;;;;6.90;5.00;;;;;;;19.43;69.41;97921.20;107234;1282;22571;-80
2023/07/15 04:20:12;;;;;;;6.70;5.10;;;;;;;19.52;69.85;97919.75;107211;1282;22573;-80
2023/07/15 04:22:39;;;;;;;6.10;4.90;;;;;;;19.62;69.37;97925.60;109929;1282;22255;-80
2023/07/15 04:25:06;;;;;;;6.60;5.10;;;;;;;19.68;69.47;97924.58;107590;1282;24340;-80
2023/07/15 04:27:33;;;;;;;5.90;4.70;;;;;;;19.73;69.24;97928.13;107230;1282;22807;-80
2023/07/15 04:30:03;;;;;;;6.10;4.40;;;;;;;19.81;69.38;97926.35;107229;1282;22540;-81
2023/07/15 04:32:30;;;;;;;7.80;5.10;;;;;;;19.93;69.48;97926.43;107278;1283;22538;-80
2023/07/15 04:34:56;;;;;;;5.80;4.10;;;;;;;20.05;69.19;97924.34;107261;1282;22663;-81
2023/07/15 04:37:24;;;;;;;7.80;5.50;;;;;;;20.16;68.92;97921.19;107243;1282;23651;-80
2023/07/15 04:39:51;;;;;;;6.60;4.70;;;;;;;20.20;68.71;97926.89;107298;1282;25431;-80
2023/07/15 04:42:18;;;;;;;7.00;5.00;;;;;;;20.26;68.73;97929.83;107560;1282;22589;-81
2023/07/15 04:44:44;;;;;;;9.30;5.40;;;;;;;20.32;68.57;97927.35;107100;1282;1780672;-80
2023/07/15 04:47:12;;;;;;;21.40;6.60;;;;;;;20.37;68.53;97927.70;108305;1282;25307;-80
2023/07/15 04:49:39;;;;;;;9.40;5.90;;;;;;;20.39;68.48;97934.05;108490;1282;22579;-80
2023/07/15 04:52:06;;;;;;;13.00;6.40;;;;;;;20.48;68.59;97931.32;108788;1277;22625;-81
2023/07/15 04:54:33;;;;;;;11.20;6.20;;;;;;;20.56;68.44;97926.55;107310;1282;24209;-78
2023/07/15 04:56:59;;;;;;;8.80;5.80;;;;;;;20.63;68.41;97928.58;107309;1282;24261;-79
2023/07/15 04:59:29;;;;;;;12.10;5.90;;;;;;;20.67;68.15;97931.84;107324;1282;22600;-79
2023/07/15 05:01:55;;;;;;;6.80;4.90;;;;;;;20.70;68.23;97934.27;107204;1282;22603;-78
2023/07/15 05:04:22;;;;;;;7.00;5.00;;;;;;;20.75;68.16;97937.15;107217;1282;22551;-78
2023/07/15 05:06:49;;;;;;;7.50;4.60;;;;;;;20.83;68.09;97933.62;107163;1282;22560;-79
2023/07/15 05:09:15;;;;;;;9.40;4.90;;;;;;;20.90;67.93;97936.14;107081;1282;25335;-79
2023/07/15 05:11:42;;;;;;;8.60;5.10;;;;;;;20.98;67.89;97937.77;107155;1282;22627;-79
2023/07/15 05:14:08;;;;;;;7.70;4.90;;;;;;;21.05;67.86;97940.63;107349;1282;25376;-80
2023/07/15 05:16:35;;;;;;;6.90;4.10;;;;;;;21.16;67.83;97944.23;107323;1276;23301;-80
2023/07/15 05:19:02;;;;;;;5.70;4.10;;;;;;;21.25;67.62;97947.67;107325;1282;22580;-80
2023/07/15 05:21:29;;;;;;;6.20;4.50;;;;;;;21.33;67.68;97945.61;107276;1282;22566;-79
2023/07/15 05:23:56;;;;;;;11.30;5.10;;;;;;;21.45;67.54;97942.13;107374;1282;22548;-80
2023/07/15 05:26:22;;;;;;;8.00;5.20;;;;;;;21.53;67.18;97944.02;107321;1282;22544;-79
2023/07/15 05:28:49;;;;;;;5.80;4.60;;;;;;;21.54;66.95;97944.30;107329;1282;22669;-78
2023/07/15 05:31:15;;;;;;;6.40;4.60;;;;;;;21.61;67.18;97946.59;107267;1282;22537;-78
2023/07/15 05:33:44;;;;;;;5.70;4.20;;;;;;;21.69;66.76;97944.97;107250;1282;25413;-79
2023/07/15 05:36:11;;;;;;;11.90;4.50;;;;;;;21.77;66.73;97940.30;107343;1282;25297;-79
2023/07/15 05:38:42;;;;;;;5.30;4.60;;;;;;;21.85;66.62;97942.36;107269;1282;22580;-79
2023/07/15 05:41:11;;;;;;;5.70;4.90;;;;;;;21.89;66.43;97940.92;109927;1282;22239;-79
2023/07/15 05:43:37;;;;;;;7.30;4.50;;;;;;;21.95;66.22;97934.73;108528;1282;22780;-78
2023/07/15 05:46:04;;;;;;;8.60;4.90;;;;;;;22.04;66.12;97935.08;107247;1282;23303;-78
2023/07/15 05:48:31;;;;;;;5.60;4.40;;;;;;;22.10;66.05;97935.30;107243;1282;22729;-78
2023/07/15 05:50:57;;;;;;;7.30;4.10;;;;;;;22.12;66.06;97934.02;106842;1282;26647;-78
2023/07/15 05:53:24;;;;;;;7.40;4.30;;;;;;;22.26;66.17;97933.33;107215;1282;22567;-78
2023/07/15 05:55:51;;;;;;;5.40;4.40;;;;;;;22.33;65.84;97929.00;106633;1282;25173;-78
2023/07/15 05:58:19;;;;;;;9.20;4.60;;;;;;;22.39;65.87;97927.89;107319;1282;22575;-79
2023/07/15 06:00:46;;;;;;;7.50;4.10;;;;;;;22.46;65.74;97924.59;107322;1282;22731;-79
2023/07/15 06:03:13;;;;;;;5.80;4.40;;;;;;;22.53;65.78;97924.59;107354;1282;24226;-80
2023/07/15 06:05:39;;;;;;;6.30;4.40;;;;;;;22.60;65.54;97925.77;107376;1282;22571;-80
2023/07/15 06:08:06;;;;;;;6.50;4.90;;;;;;;22.65;65.26;97925.42;107334;1282;22556;-80
2023/07/15 06:10:33;;;;;;;6.10;4.60;;;;;;;22.73;65.53;97927.98;107376;1275;22664;-79
2023/07/15 06:13:00;;;;;;;7.70;4.70;;;;;;;22.84;65.42;97928.23;107336;1282;22671;-79
2023/07/15 06:15:27;;;;;;;5.80;4.10;;;;;;;22.94;65.35;97931.80;107365;1282;23480;-79
2023/07/15 06:17:57;;;;;;;5.90;4.30;;;;;;;23.02;65.19;97930.55;107391;1282;24297;-79
2023/07/15 06:20:23;;;;;;;7.20;4.50;;;;;;;23.06;65.03;97934.27;107237;1282;22550;-78
2023/07/15 06:22:50;;;;;;;7.40;4.80;;;;;;;23.15;65.02;97934.50;107220;1282;22614;-80
2023/07/15 06:25:17;;;;;;;7.80;4.50;;;;;;;23.26;64.87;97939.99;107150;1282;22560;-79
2023/07/15 06:27:44;;;;;;;6.70;4.30;;;;;;;23.32;64.52;97938.77;107223;1263;22758;-79
2023/07/15 06:30:11;;;;;;;5.90;4.10;;;;;;;23.37;64.66;97938.90;107221;1282;22629;-79
2023/07/15 06:32:37;;;;;;;6.50;4.10;;;;;;;23.44;64.62;97937.61;107235;1277;22534;-79
2023/07/15 06:35:04;;;;;;;7.80;4.30;;;;;;;23.58;64.70;97938.55;107265;1282;22562;-79
2023/07/15 06:37:32;;;;;;;6.00;4.20;;;;;;;23.71;64.68;97939.28;108235;1282;22207;-79
2023/07/15 06:39:58;;;;;;;7.20;4.30;;;;;;;23.78;64.51;97940.83;107356;1281;22536;-79
2023/07/15 06:42:25;;;;;;;7.10;4.20;;;;;;;23.86;64.49;97936.77;107275;1282;25262;-79
2023/07/15 06:44:51;;;;;;;6.80;4.30;;;;;;;23.94;64.18;97941.38;107206;1282;22540;-79
2023/07/15 06:47:18;;;;;;;6.00;4.10;;;;;;;24.03;64.37;97942.59;107223;1282;22695;-79
2023/07/15 06:49:45;;;;;;;7.30;4.40;;;;;;;24.16;64.33;97937.84;107218;1282;25377;-78
2023/07/15 06:52:11;;;;;;;6.70;4.70;;;;;;;24.27;63.97;97943.61;107252;1282;22560;-78
2023/07/15 06:54:38;;;;;;;10.00;4.70;;;;;;;24.32;64.03;97939.77;107313;1282;23631;-79
2023/07/15 06:57:04;;;;;;;6.20;4.10;;;;;;;24.44;64.04;97942.19;107440;1282;23020;-76
2023/07/15 06:59:31;;;;;;;6.50;4.30;;;;;;;24.56;63.87;97936.96;106594;1282;24740;-77
2023/07/15 07:01:58;;;;;;;6.50;4.20;;;;;;;24.65;63.73;97939.33;106640;1270;24226;-76
2023/07/15 07:04:24;;;;;;;7.00;3.70;;;;;;;24.71;63.38;97933.67;107332;1282;25456;-76
2023/07/15 07:06:51;;;;;;;7.70;3.90;;;;;;;24.75;63.24;97930.68;107213;1282;22610;-75
2023/07/15 07:09:17;;;;;;;7.20;3.80;;;;;;;24.82;63.02;97930.77;106614;1281;22530;-75
2023/07/15 07:11:44;;;;;;;6.70;3.90;;;;;;;24.93;62.61;97930.78;106626;1282;23420;-75
2023/07/15 07:14:10;;;;;;;6.10;3.80;;;;;;;25.03;62.09;97927.72;106574;1259;24214;-78
2023/07/15 07:16:37;;;;;;;7.20;4.10;;;;;;;25.15;62.02;97931.35;107255;1282;25537;-78
2023/07/15 07:19:04;;;;;;;6.80;4.00;;;;;;;25.26;61.68;97927.49;107291;1282;23392;-76
2023/07/15 07:21:30;;;;;;;5.20;3.70;;;;;;;25.33;61.80;97926.06;107269;1277;22654;-80
2023/07/15 07:23:57;;;;;;;4.50;3.50;;;;;;;25.41;61.15;97928.27;106624;1282;24197;-78
2023/07/15 07:26:24;;;;;;;5.00;3.50;;;;;;;25.47;60.39;97926.52;106718;1282;22615;-78
2023/07/15 07:28:50;;;;;;;7.10;4.20;;;;;;;25.53;59.29;97928.25;106375;1269;22534;-79
2023/07/15 07:31:18;;;;;;;10.70;3.80;;;;;;;25.55;59.25;97926.98;106653;1282;22549;-78
2023/07/15 07:33:46;;;;;;;6.70;3.60;;;;;;;25.59;58.81;97930.60;107168;1282;26625;-77
2023/07/15 07:36:12;;;;;;;6.90;3.30;;;;;;;25.63;58.37;97926.02;106933;1282;25298;-79
2023/07/15 07:38:39;;;;;;;5.80;3.60;;;;;;;25.70;58.22;97929.85;106849;1277;22691;-78
2023/07/15 07:41:11;;;;;;;5.30;3.60;;;;;;;25.76;58.09;97932.20;106890;1278;22780;-75
2023/07/15 07:43:39;;;;;;;8.20;3.90;;;;;;;25.86;57.79;97925.66;106527;1276;22552;-77
2023/07/15 07:46:09;;;;;;;5.70;3.70;;;;;;;25.95;57.30;97929.10;106656;1282;22546;-78
2023/07/15 07:48:35;;;;;;;11.80;4.40;;;;;;;25.98;56.37;97927.42;106857;1282;23866;-78
2023/07/15 07:51:02;;;;;;;6.50;3.70;;;;;;;25.98;57.04;97928.38;106896;1282;22756;-79
2023/07/15 07:53:30;;;;;;;7.20;4.20;;;;;;;26.04;57.03;97933.71;106969;1282;22546;-77
2023/07/15 07:55:57;;;;;;;10.00;4.50;;;;;;;26.10;56.99;97929.83;106908;1282;22547;-79
2023/07/15 07:58:23;;;;;;;8.00;4.10;;;;;;;26.18;56.72;97929.56;106949;1282;22545;-78
2023/07/15 08:00:50;;;;;;;7.40;4.70;;;;;;;26.25;56.27;97932.73;106902;1263;24018;-78
2023/07/15 08:03:16;;;;;;;13.20;7.10;;;;;;;26.31;55.75;97930.66;106821;1280;23195;-78
2023/07/15 08:05:46;;;;;;;9.20;3.90;;;;;;;26.35;55.53;97927.18;106868;1276;22502;-80
2023/07/15 08:08:13;;;;;;;7.10;4.30;;;;;;;26.42;55.88;97928.48;106925;1282;22608;-80
2023/07/15 08:10:40;;;;;;;7.40;4.10;;;;;;;26.52;55.56;97927.17;107130;1279;25476;-79
2023/07/15 08:13:07;;;;;;;9.10;3.70;;;;;;;26.62;55.73;97923.48;107097;1275;22553;-79
2023/07/15 08:15:36;;;;;;;8.70;3.10;;;;;;;26.74;55.08;97924.98;106961;1277;22615;-78
2023/07/15 08:18:04;;;;;;;5.90;3.30;;;;;;;26.79;54.90;97925.02;106964;1280;22553;-81
2023/07/15 08:20:31;;;;;;;6.60;3.00;;;;;;;26.82;54.41;97924.92;106822;1282;24328;-78
2023/07/15 08:22:59;;;;;;;5.50;3.20;;;;;;;26.86;54.22;97928.13;106753;1282;22544;-78
2023/07/15 08:25:28;;;;;;;6.50;3.40;;;;;;;26.94;54.29;97925.39;106801;1282;24202;-76
2023/07/15 08:27:55;;;;;;;9.90;3.60;;;;;;;27.05;54.46;97921.20;106751;1282;22569;-76
2023/07/15 08:30:22;;;;;;;6.80;3.00;;;;;;;27.16;54.13;97924.98;106464;1282;23928;-76
2023/07/15 08:32:50;;;;;;;4.20;2.90;;;;;;;27.23;54.09;97920.43;106318;1282;22556;-77
2023/07/15 08:35:16;;;;;;;4.20;2.90;;;;;;;27.29;53.94;97920.86;106260;1282;22669;-76
2023/07/15 08:37:43;;;;;;;6.30;3.60;;;;;;;27.37;53.68;97924.56;106290;1282;24260;-76
2023/07/15 08:40:11;;;;;;;5.50;3.40;;;;;;;27.42;53.22;97917.73;106294;1280;24258;-76
2023/07/15 08:42:39;;;;;;;5.80;3.20;;;;;;;27.48;53.19;97918.77;106346;1282;22661;-79
2023/07/15 08:45:06;;;;;;;7.20;3.10;;;;;;;27.53;52.38;97919.11;106565;1282;22550;-76
2023/07/15 08:47:33;;;;;;;9.40;3.30;;;;;;;27.41;51.12;97915.60;106811;1277;22579;-77
2023/07/15 08:50:03;;;;;;;4.70;2.90;;;;;;;27.29;51.48;97911.36;106475;1282;24280;-77
2023/07/15 08:52:31;;;;;;;6.00;3.10;;;;;;;27.33;52.14;97911.33;106512;1282;24237;-77
2023/07/15 08:54:59;;;;;;;5.50;3.40;;;;;;;27.47;51.98;97914.98;106565;1282;22680;-79
2023/07/15 08:57:25;;;;;;;3.10;2.70;;;;;;;27.55;51.97;97910.39;107431;1277;22632;-77
2023/07/15 08:59:54;;;;;;;4.40;2.90;;;;;;;27.69;51.92;97905.81;107251;1282;25937;-78
2023/07/15 09:02:21;;;;;;;6.20;3.00;;;;;;;27.80;51.53;97905.48;106462;1284;24780;-78
2023/07/15 09:04:48;;;;;;;5.50;2.80;;;;;;;27.89;51.54;97899.83;106837;1283;22620;-78
2023/07/15 09:07:14;;;;;;;6.20;2.90;;;;;;;28.00;50.87;97895.73;106860;1282;23207;-80
2023/07/15 09:09:42;;;;;;;8.20;2.90;;;;;;;28.14;50.87;97896.90;106865;1282;22655;-77
2023/07/15 09:12:11;;;;;;;6.40;2.80;;;;;;;28.25;50.19;97898.88;106978;1282;22552;-79
2023/07/15 09:14:45;;;;;;;6.30;3.00;;;;;;;28.38;50.14;97894.92;107015;1282;24115;-79
2023/07/15 09:17:21;;;;;;;5.70;2.40;;;;;;;28.55;50.13;97900.72;106860;1282;23220;-78
2023/07/15 09:19:48;;;;;;;4.20;2.70;;;;;;;28.61;49.59;97903.64;106446;1282;22610;-78
2023/07/15 09:22:16;;;;;;;4.60;2.60;;;;;;;28.63;49.32;97898.60;107009;1282;22699;-77
2023/07/15 09:24:43;;;;;;;6.20;2.80;;;;;;;28.77;49.18;97896.66;107004;1282;22543;-77
2023/07/15 09:27:10;;;;;;;3.00;2.40;;;;;;;28.88;48.18;97900.74;106678;1282;23454;-76
2023/07/15 09:29:37;;;;;;;3.60;2.60;;;;;;;28.91;47.91;97899.77;106415;1282;22558;-79
2023/07/15 09:32:06;;;;;;;4.30;2.60;;;;;;;28.95;46.38;97892.00;106930;1278;22560;-78
2023/07/15 09:34:38;;;;;;;4.60;2.60;;;;;;;28.70;45.39;97892.25;106546;1282;22671;-77
2023/07/15 09:37:04;;;;;;;3.70;2.50;;;;;;;28.58;45.50;97891.58;106897;1280;24312;-77
2023/07/15 09:39:55;;;;;;;5.00;2.60;;;;;;;28.53;46.06;97889.42;106383;1274;23050;-78
2023/07/15 09:43:12;;;;;;;4.00;2.70;;;;;;;28.62;46.01;97890.63;106499;1282;22655;-78
2023/07/15 09:45:40;;;;;;;3.40;2.90;;;;;;;28.62;45.99;97895.21;106374;1282;22565;-77
2023/07/15 09:48:16;;;;;;;5.90;2.70;;;;;;;28.61;45.96;97893.97;107001;1274;25436;-79
2023/07/15 09:50:50;;;;;;;4.00;2.50;;;;;;;28.73;45.81;97888.39;106972;1274;22733;-78
2023/07/15 09:53:18;;;;;;;5.80;2.70;;;;;;;28.78;45.06;97881.35;106399;1282;25426;-77
2023/07/15 09:55:45;;;;;;;7.10;2.60;;;;;;;28.87;43.58;97898.31;106910;1282;25400;-76
2023/07/15 09:58:22;;;;;;;4.10;2.20;;;;;;;28.79;43.40;97900.91;106915;1282;25308;-77
2023/07/15 10:01:16;;;;;;;8.50;2.70;;;;;;;28.69;44.21;97892.35;106897;1282;22655;-77
2023/07/15 10:03:53;;;;;;;4.50;2.60;;;;;;;28.74;44.60;97889.17;106874;1259;22565;-76
2023/07/15 10:06:21;;;;;;;5.80;2.50;;;;;;;28.99;45.05;97883.88;106905;1282;24443;-78
2023/07/15 10:08:48;;;;;;;5.20;2.40;;;;;;;29.30;45.35;97876.98;106959;1282;22555;-77
2023/07/15 10:11:16;;;;;;;4.50;3.00;;;;;;;29.47;44.24;97879.45;106535;1282;22529;-78
2023/07/15 10:13:43;;;;;;;4.60;2.60;;;;;;;29.50;43.43;97877.49;106848;1282;22545;-77
2023/07/15 10:16:11;;;;;;;4.70;2.60;;;;;;;29.54;43.17;97878.60;106894;1282;25294;-76
2023/07/15 10:18:38;;;;;;;2.80;2.40;;;;;;;29.70;43.45;97871.73;106417;1282;22549;-79
2023/07/15 10:21:05;;;;;;;4.00;2.30;;;;;;;29.94;43.30;97878.16;106907;1282;22548;-77
2023/07/15 10:23:33;;;;;;;3.40;2.30;;;;;;;30.09;42.77;97875.86;106441;1277;22556;-77
2023/07/15 10:26:08;;;;;;;4.10;2.30;;;;;;;30.18;43.09;97870.27;106521;1267;22589;-80
2023/07/15 10:28:39;;;;;;;5.60;2.40;;;;;;;30.40;42.95;97865.98;106936;1275;24275;-79
2023/07/15 10:31:16;;;;;;;4.80;2.40;;;;;;;30.45;41.70;97873.57;106826;1273;25244;-78
2023/07/15 10:34:04;;;;;;;3.70;2.50;;;;;;;30.43;40.58;97871.63;106914;1282;24427;-79
2023/07/15 10:36:39;;;;;;;3.50;2.10;;;;;;;30.41;40.48;97878.75;106882;1274;22582;-77
2023/07/15 10:39:10;;;;;;;6.20;2.60;;;;;;;30.38;40.23;97879.06;106753;1282;26533;-76
2023/07/15 10:41:46;;;;;;;4.00;2.40;;;;;;;30.34;40.07;97875.50;106886;1282;24332;-78
2023/07/15 10:44:19;;;;;;;3.40;2.00;;;;;;;30.41;40.55;97871.78;106913;1282;22554;-79
2023/07/15 10:46:48;;;;;;;3.90;2.20;;;;;;;30.50;39.52;97866.63;106957;1262;22574;-79
2023/07/15 10:49:15;;;;;;;4.40;2.40;;;;;;;30.56;39.98;97868.48;106922;1282;22761;-81
2023/07/15 10:51:41;;;;;;;3.60;2.20;;;;;;;30.81;40.29;97870.45;106956;1282;24215;-80
2023/07/15 10:54:08;;;;;;;6.30;2.20;;;;;;;31.06;40.53;97867.27;106935;1282;25335;-82
2023/07/15 10:56:35;;;;;;;4.70;2.40;;;;;;;31.30;39.93;97864.13;106872;1282;22542;-81
2023/07/15 10:59:02;;;;;;;5.30;2.20;;;;;;;31.45;39.16;97864.86;106859;1282;22561;-79
2023/07/15 11:01:30;;;;;;;4.90;2.30;;;;;;;31.49;39.13;97865.28;106960;1278;22573;-89
2023/07/15 11:04:04;;;;;;;4.00;2.30;;;;;;;31.56;38.93;97868.52;106864;1282;23315;-81
2023/07/15 11:06:33;;;;;;;4.10;1.90;;;;;;;31.60;37.98;97856.70;106645;1280;25305;-80
2023/07/15 11:09:17;;;;;;;4.60;2.50;;;;;;;31.54;35.96;97862.77;106885;1277;22506;-77
2023/07/15 11:11:45;;;;;;;7.00;2.30;;;;;;;31.46;35.55;97864.19;106903;1278;22588;-80
2023/07/15 11:14:22;;;;;;;3.30;2.10;;;;;;;31.43;35.28;97864.27;106913;1282;24160;-80
2023/07/15 11:16:50;;;;;;;4.90;2.00;;;;;;;31.34;35.65;97855.33;106849;1276;22625;-80
2023/07/15 11:19:17;;;;;;;7.60;2.00;;;;;;;31.48;36.05;97852.35;106942;1278;22555;-79
2023/07/15 11:21:44;;;;;;;2.70;2.10;;;;;;;31.62;35.50;97856.16;106877;1282;22780;-79
2023/07/15 11:24:12;;;;;;;3.90;2.30;;;;;;;31.69;34.41;97853.19;106905;1277;22554;-79
2023/07/15 11:26:43;;;;;;;3.00;2.20;;;;;;;31.54;34.29;97852.59;106899;1277;23302;-80
2023/07/15 11:29:28;;;;;;;4.10;2.70;;;;;;;31.53;34.13;97849.96;106844;1282;24784;-78